Time;durP1;ratioP1;P1;durP2;ratioP2;P2;SDS_P1;SDS_P2;PMS_P1;PMS_P2;Temp;Humidity;BMP_temperature;BMP_pressure;BME280_temperature;BME280_humidity;BME280_pressure;Samples;Min_cycle;Max_cycle;Signal;HPM_P1;HPM_P2
2022/08/01 00:01:50;;;;;;;12.47;9.70;;;;;;;;;;5096665;28;20530;-67
2022/08/01 00:04:18;;;;;;;16.57;10.30;;;;;;;;;;5096941;28;20480;-67
2022/08/01 00:06:45;;;;;;;14.33;12.00;;;;;;;;;;5096814;28;20473;-68
2022/08/01 00:09:12;;;;;;;18.00;11.40;;;;;;;;;;5096776;28;20485;-68
2022/08/01 00:11:39;;;;;;;15.07;11.60;;;;;;;;;;5096653;28;20441;-68
2022/08/01 00:14:09;;;;;;;15.37;13.70;;;;;;;;;;5096618;28;20530;-68
2022/08/01 00:16:36;;;;;;;20.63;14.70;;;;;;;;;;5096319;28;20538;-68
2022/08/01 00:19:04;;;;;;;19.03;14.10;;;;;;;;;;5096240;28;20488;-69
2022/08/01 00:21:32;;;;;;;15.43;13.83;;;;;;;;;;5096460;28;20450;-69
2022/08/01 00:23:59;;;;;;;17.40;13.50;;;;;;;;;;5096309;28;20531;-69
2022/08/01 00:26:27;;;;;;;18.23;14.17;;;;;;;;;;5096053;28;20452;-68
2022/08/01 00:28:54;;;;;;;19.90;12.77;;;;;;;;;;5096707;28;20545;-68
2022/08/01 00:31:21;;;;;;;26.47;14.50;;;;;;;;;;5095978;28;20490;-68
2022/08/01 00:33:48;;;;;;;19.90;13.60;;;;;;;;;;5096445;28;20803;-68
2022/08/01 00:36:17;;;;;;;15.90;12.53;;;;;;;;;;5096222;28;20441;-68
2022/08/01 00:38:44;;;;;;;18.43;15.80;;;;;;;;;;5096123;28;20591;-68
2022/08/01 00:41:12;;;;;;;21.00;12.40;;;;;;;;;;5096134;28;20533;-68
2022/08/01 00:43:39;;;;;;;20.77;14.33;;;;;;;;;;5096846;28;20462;-68
2022/08/01 00:46:06;;;;;;;15.90;12.27;;;;;;;;;;5096011;28;20562;-68
2022/08/01 00:48:33;;;;;;;17.67;13.07;;;;;;;;;;5095808;28;20951;-69
2022/08/01 00:51:00;;;;;;;18.80;13.87;;;;;;;;;;5095918;28;20519;-68
2022/08/01 00:53:29;;;;;;;16.40;13.23;;;;;;;;;;5096056;28;20449;-68
2022/08/01 00:55:56;;;;;;;23.70;13.80;;;;;;;;;;5095485;28;20541;-68
2022/08/01 00:58:24;;;;;;;19.17;13.80;;;;;;;;;;5095512;28;20538;-69
2022/08/01 01:00:51;;;;;;;19.20;14.40;;;;;;;;;;5096040;28;20436;-69
2022/08/01 01:03:18;;;;;;;23.43;15.13;;;;;;;;;;5095410;28;20946;-68
2022/08/01 01:05:50;;;;;;;17.33;13.30;;;;;;;;;;5095869;28;20445;-69
2022/08/01 01:08:20;;;;;;;19.93;14.43;;;;;;;;;;5096002;28;20433;-68
2022/08/01 01:10:53;;;;;;;17.77;13.43;;;;;;;;;;5096068;28;20524;-68
2022/08/01 01:13:24;;;;;;;17.87;14.60;;;;;;;;;;5095624;28;20439;-68
2022/08/01 01:15:56;;;;;;;16.93;12.50;;;;;;;;;;5095290;28;20476;-68
2022/08/01 01:18:25;;;;;;;18.33;14.17;;;;;;;;;;5095761;28;20511;-68
2022/08/01 01:20:57;;;;;;;22.23;15.80;;;;;;;;;;5095372;28;20594;-68
2022/08/01 01:23:33;;;;;;;17.40;14.20;;;;;;;;;;5095881;28;20532;-68
2022/08/01 01:26:08;;;;;;;19.33;13.03;;;;;;;;;;5095210;28;20508;-68
2022/08/01 01:28:41;;;;;;;18.03;14.93;;;;;;;;;;5094975;28;20908;-68
2022/08/01 01:31:11;;;;;;;19.07;13.27;;;;;;;;;;5094878;28;20981;-68
2022/08/01 01:33:39;;;;;;;17.93;14.27;;;;;;;;;;5095624;28;20467;-68
2022/08/01 01:36:07;;;;;;;19.70;13.77;;;;;;;;;;5094934;28;20475;-68
2022/08/01 01:38:37;;;;;;;23.20;15.23;;;;;;;;;;5095069;28;20539;-68
2022/08/01 01:41:05;;;;;;;15.73;13.53;;;;;;;;;;5094675;28;20877;-68
2022/08/01 01:43:33;;;;;;;17.30;13.47;;;;;;;;;;5094670;28;20445;-68
2022/08/01 01:46:01;;;;;;;17.90;14.07;;;;;;;;;;5094803;28;20937;-68
2022/08/01 01:48:30;;;;;;;19.83;13.37;;;;;;;;;;5094857;28;20453;-68
2022/08/01 01:50:58;;;;;;;17.00;13.40;;;;;;;;;;5094847;28;20538;-68
2022/08/01 01:53:26;;;;;;;19.10;13.67;;;;;;;;;;5094737;28;20932;-68
2022/08/01 01:55:54;;;;;;;23.80;13.37;;;;;;;;;;5094847;28;20535;-69
2022/08/01 01:58:22;;;;;;;19.47;12.63;;;;;;;;;;5094705;28;20469;-68
2022/08/01 02:00:51;;;;;;;16.60;12.77;;;;;;;;;;5094527;28;20476;-68
2022/08/01 02:03:19;;;;;;;18.20;12.87;;;;;;;;;;5094455;28;20443;-68
2022/08/01 02:05:47;;;;;;;18.80;12.40;;;;;;;;;;5094208;28;20526;-69
2022/08/01 02:08:16;;;;;;;20.03;13.50;;;;;;;;;;5094511;28;20838;-68
2022/08/01 02:11:17;;;;;;;23.33;13.47;;;;;;;;;;5094098;28;20488;-68
2022/08/01 02:13:32;;;;;;;18.87;13.57;;;;;;;;;;5094135;28;20440;-68
2022/08/01 02:15:59;;;;;;;20.73;13.60;;;;;;;;;;5094138;28;20488;-68
2022/08/01 02:18:27;;;;;;;18.17;13.43;;;;;;;;;;5094429;28;20515;-68
2022/08/01 02:20:57;;;;;;;19.40;13.80;;;;;;;;;;5093853;28;20974;-68
2022/08/01 02:23:26;;;;;;;16.50;12.60;;;;;;;;;;5093775;28;20546;-68
2022/08/01 02:25:55;;;;;;;18.23;12.27;;;;;;;;;;5094147;28;20453;-68
2022/08/01 02:28:28;;;;;;;22.33;13.57;;;;;;;;;;5094061;28;20480;-67
2022/08/01 02:30:56;;;;;;;14.73;12.57;;;;;;;;;;5094480;28;20426;-68
2022/08/01 02:33:26;;;;;;;19.23;13.30;;;;;;;;;;5093652;28;20536;-68
2022/08/01 02:35:54;;;;;;;20.13;14.27;;;;;;;;;;5094528;28;20454;-68
2022/08/01 02:38:25;;;;;;;19.30;14.13;;;;;;;;;;5093918;28;20855;-68
2022/08/01 02:40:53;;;;;;;19.80;12.70;;;;;;;;;;5094444;28;20521;-68
2022/08/01 02:43:24;;;;;;;18.17;13.90;;;;;;;;;;5093909;28;20536;-67
2022/08/01 02:45:53;;;;;;;20.10;15.70;;;;;;;;;;5094250;28;20483;-67
2022/08/01 02:48:21;;;;;;;16.50;12.30;;;;;;;;;;5093851;28;20488;-68
2022/08/01 02:50:49;;;;;;;19.93;13.47;;;;;;;;;;5093758;28;20967;-67
2022/08/01 02:53:18;;;;;;;20.20;12.50;;;;;;;;;;5093682;28;20869;-68
2022/08/01 02:55:47;;;;;;;18.53;13.80;;;;;;;;;;5093726;28;20531;-68
2022/08/01 02:58:16;;;;;;;18.17;12.53;;;;;;;;;;5093588;28;20448;-68
2022/08/01 03:00:44;;;;;;;15.57;11.50;;;;;;;;;;5093293;28;20478;-67
2022/08/01 03:03:12;;;;;;;19.30;13.00;;;;;;;;;;5093752;28;20528;-67
2022/08/01 03:05:40;;;;;;;14.83;13.13;;;;;;;;;;5093884;28;20800;-67
2022/08/01 03:08:08;;;;;;;15.77;12.07;;;;;;;;;;5093915;28;20449;-67
2022/08/01 03:10:37;;;;;;;12.80;10.97;;;;;;;;;;5093603;28;20773;-67
2022/08/01 03:13:07;;;;;;;17.10;11.60;;;;;;;;;;5093785;28;20498;-67
2022/08/01 03:15:36;;;;;;;15.53;11.47;;;;;;;;;;5093196;28;20450;-68
2022/08/01 03:18:04;;;;;;;21.47;11.37;;;;;;;;;;5093284;28;21011;-68
2022/08/01 03:20:34;;;;;;;15.70;11.80;;;;;;;;;;5093379;28;20822;-67
2022/08/01 03:23:03;;;;;;;14.83;11.23;;;;;;;;;;5093189;28;20441;-68
2022/08/01 03:25:31;;;;;;;15.03;11.80;;;;;;;;;;5097219;28;20436;-68
2022/08/01 03:27:58;;;;;;;12.20;10.07;;;;;;;;;;5097423;28;20913;-67
2022/08/01 03:30:28;;;;;;;14.50;11.03;;;;;;;;;;5097678;28;20440;-67
2022/08/01 03:32:55;;;;;;;11.33;9.80;;;;;;;;;;5097002;28;20515;-67
2022/08/01 03:35:23;;;;;;;18.47;9.37;;;;;;;;;;5097109;28;20920;-67
2022/08/01 03:37:52;;;;;;;12.47;9.27;;;;;;;;;;5097225;28;20545;-65
2022/08/01 03:40:23;;;;;;;10.63;8.57;;;;;;;;;;5097215;28;20477;-66
2022/08/01 03:42:53;;;;;;;14.10;8.80;;;;;;;;;;5097141;28;20428;-66
2022/08/01 03:45:23;;;;;;;10.47;8.63;;;;;;;;;;5096901;28;20443;-66
2022/08/01 03:47:54;;;;;;;14.77;9.50;;;;;;;;;;5096745;28;20980;-65
2022/08/01 03:50:23;;;;;;;11.27;9.27;;;;;;;;;;5096817;28;20943;-67
2022/08/01 03:52:51;;;;;;;13.00;9.40;;;;;;;;;;5096842;28;20452;-67
2022/08/01 03:55:20;;;;;;;14.70;9.17;;;;;;;;;;5096707;28;20443;-67
2022/08/01 03:57:48;;;;;;;13.87;9.17;;;;;;;;;;5097057;28;20480;-68
2022/08/01 04:00:18;;;;;;;20.00;8.73;;;;;;;;;;5096702;28;20480;-67
2022/08/01 04:02:45;;;;;;;10.80;8.40;;;;;;;;;;5096678;28;20527;-67
2022/08/01 04:05:14;;;;;;;11.93;8.90;;;;;;;;;;5096465;28;20961;-67
2022/08/01 04:07:43;;;;;;;10.57;8.10;;;;;;;;;;5096692;28;20459;-67
2022/08/01 04:10:10;;;;;;;12.53;8.50;;;;;;;;;;5095128;28;20451;-67
2022/08/01 04:12:37;;;;;;;10.47;9.23;;;;;;;;;;5096851;28;20533;-68
2022/08/01 04:15:05;;;;;;;11.03;8.33;;;;;;;;;;5076065;28;20535;-67
2022/08/01 04:17:33;;;;;;;15.47;8.73;;;;;;;;;;5076290;28;20479;-67
2022/08/01 04:20:00;;;;;;;10.30;7.70;;;;;;;;;;5076044;28;20572;-67
2022/08/01 04:22:30;;;;;;;10.13;8.17;;;;;;;;;;5075918;28;20451;-67
2022/08/01 04:24:58;;;;;;;11.03;8.53;;;;;;;;;;5075618;28;20558;-67
2022/08/01 04:27:29;;;;;;;11.10;8.07;;;;;;;;;;5075734;28;20485;-67
2022/08/01 04:29:58;;;;;;;15.93;8.17;;;;;;;;;;5076065;28;20428;-67
2022/08/01 04:32:27;;;;;;;12.60;7.97;;;;;;;;;;5076887;28;20507;-69
2022/08/01 04:34:56;;;;;;;11.63;7.57;;;;;;;;;;5075744;28;20453;-67
2022/08/01 04:37:25;;;;;;;10.30;7.00;;;;;;;;;;5075679;28;20443;-67
2022/08/01 04:39:54;;;;;;;9.10;6.80;;;;;;;;;;5075723;28;20569;-67
2022/08/01 04:42:21;;;;;;;9.77;7.10;;;;;;;;;;5076143;28;20442;-67
2022/08/01 04:44:49;;;;;;;15.00;8.27;;;;;;;;;;5075994;28;21001;-67
2022/08/01 04:47:16;;;;;;;8.73;7.20;;;;;;;;;;5075813;28;20841;-67
2022/08/01 04:49:45;;;;;;;7.73;6.90;;;;;;;;;;5075410;28;20450;-67
2022/08/01 04:52:12;;;;;;;6.97;6.27;;;;;;;;;;5076077;28;20438;-68
2022/08/01 04:54:40;;;;;;;7.83;6.20;;;;;;;;;;5075632;28;20447;-67
2022/08/01 04:57:08;;;;;;;8.73;6.73;;;;;;;;;;5075613;28;20868;-67
2022/08/01 04:59:43;;;;;;;8.60;7.43;;;;;;;;;;5075219;28;20529;-67
2022/08/01 05:02:10;;;;;;;10.93;5.77;;;;;;;;;;5075487;28;20416;-67
2022/08/01 05:04:38;;;;;;;7.37;6.67;;;;;;;;;;5075433;28;20449;-67
2022/08/01 05:07:05;;;;;;;10.10;7.33;;;;;;;;;;5075810;28;20526;-67
2022/08/01 05:09:33;;;;;;;6.73;6.00;;;;;;;;;;5074868;28;20472;-67
2022/08/01 05:12:01;;;;;;;7.63;6.00;;;;;;;;;;5075046;28;20542;-67
2022/08/01 05:14:31;;;;;;;8.77;6.40;;;;;;;;;;5075696;28;20446;-67
2022/08/01 05:16:59;;;;;;;7.83;6.97;;;;;;;;;;5078660;28;20477;-67
2022/08/01 05:19:27;;;;;;;13.53;6.00;;;;;;;;;;5077376;28;20514;-67
2022/08/01 05:21:54;;;;;;;8.00;7.20;;;;;;;;;;5075790;28;20475;-67
2022/08/01 05:24:22;;;;;;;7.70;6.90;;;;;;;;;;5074714;28;20550;-67
2022/08/01 05:26:49;;;;;;;11.33;6.80;;;;;;;;;;5074787;28;20485;-66
2022/08/01 05:29:17;;;;;;;7.80;6.70;;;;;;;;;;5074821;28;20443;-66
2022/08/01 05:31:45;;;;;;;7.40;6.70;;;;;;;;;;5074618;28;20448;-67
2022/08/01 05:34:12;;;;;;;7.43;6.80;;;;;;;;;;5074805;28;20525;-66
2022/08/01 05:36:39;;;;;;;7.90;7.10;;;;;;;;;;5074495;28;20443;-67
2022/08/01 05:39:07;;;;;;;8.73;7.27;;;;;;;;;;5074260;28;20442;-67
2022/08/01 05:41:34;;;;;;;9.43;7.67;;;;;;;;;;5074488;28;20572;-66
2022/08/01 05:44:01;;;;;;;9.27;7.17;;;;;;;;;;5074502;28;20442;-67
2022/08/01 05:46:30;;;;;;;9.93;7.80;;;;;;;;;;5073789;28;20472;-67
2022/08/01 05:48:59;;;;;;;7.83;7.00;;;;;;;;;;5074509;28;20526;-67
2022/08/01 05:51:26;;;;;;;7.63;6.83;;;;;;;;;;5074576;28;20458;-67
2022/08/01 05:53:54;;;;;;;10.63;9.30;;;;;;;;;;5074230;28;20542;-67
2022/08/01 05:56:21;;;;;;;7.90;7.07;;;;;;;;;;5073967;28;20453;-66
2022/08/01 05:58:49;;;;;;;8.30;7.50;;;;;;;;;;5074635;28;20884;-67
2022/08/01 06:01:16;;;;;;;8.23;7.20;;;;;;;;;;5073979;28;20480;-66
2022/08/01 06:03:43;;;;;;;9.40;7.50;;;;;;;;;;5074263;28;20444;-66
2022/08/01 06:06:13;;;;;;;8.80;7.10;;;;;;;;;;5073807;28;21016;-66
2022/08/01 06:08:41;;;;;;;7.67;6.70;;;;;;;;;;5074618;28;20442;-66
2022/08/01 06:11:08;;;;;;;8.57;7.67;;;;;;;;;;5074054;28;20482;-67
2022/08/01 06:13:36;;;;;;;10.13;7.70;;;;;;;;;;5074070;28;20525;-67
2022/08/01 06:16:03;;;;;;;11.53;7.70;;;;;;;;;;5073754;28;20474;-67
2022/08/01 06:18:30;;;;;;;8.83;7.70;;;;;;;;;;5073757;28;20438;-67
2022/08/01 06:20:57;;;;;;;8.43;7.63;;;;;;;;;;5073838;28;20832;-67
2022/08/01 06:23:26;;;;;;;8.50;6.90;;;;;;;;;;5073821;28;20447;-67
2022/08/01 06:25:54;;;;;;;7.67;6.90;;;;;;;;;;5073719;28;20443;-67
2022/08/01 06:28:21;;;;;;;8.77;7.90;;;;;;;;;;5073854;28;20444;-67
2022/08/01 06:30:48;;;;;;;8.30;7.40;;;;;;;;;;5073347;28;20450;-67
2022/08/01 06:33:16;;;;;;;9.30;7.73;;;;;;;;;;5074066;28;20789;-68
2022/08/01 06:35:43;;;;;;;10.40;8.53;;;;;;;;;;5073726;28;20450;-67
2022/08/01 06:38:10;;;;;;;6.47;5.17;;;;;;;;;;5074186;28;20526;-68
2022/08/01 06:40:39;;;;;;;7.57;6.00;;;;;;;;;;5073710;28;21073;-68
2022/08/01 06:43:06;;;;;;;8.27;6.67;;;;;;;;;;5073423;28;20474;-68
2022/08/01 06:45:33;;;;;;;6.90;5.93;;;;;;;;;;5074284;28;20446;-69
2022/08/01 06:48:00;;;;;;;6.13;5.50;;;;;;;;;;5074033;28;20783;-68
2022/08/01 06:50:27;;;;;;;5.33;4.83;;;;;;;;;;5073596;28;20530;-69
2022/08/01 06:52:55;;;;;;;5.40;4.90;;;;;;;;;;5073692;28;20444;-69
2022/08/01 06:55:22;;;;;;;4.90;4.40;;;;;;;;;;5073957;28;20481;-68
2022/08/01 06:57:51;;;;;;;7.70;4.73;;;;;;;;;;5073640;28;20538;-70
2022/08/01 07:00:22;;;;;;;4.20;3.40;;;;;;;;;;5073767;28;20446;-69
2022/08/01 07:02:49;;;;;;;3.87;3.57;;;;;;;;;;5073253;28;20428;-70
2022/08/01 07:05:16;;;;;;;3.87;3.47;;;;;;;;;;5073797;28;20477;-71
2022/08/01 07:07:43;;;;;;;4.60;4.10;;;;;;;;;;5074009;28;20440;-71
2022/08/01 07:10:11;;;;;;;5.10;4.67;;;;;;;;;;5073378;28;20530;-70
2022/08/01 07:12:40;;;;;;;4.80;4.30;;;;;;;;;;5073475;28;20460;-70
2022/08/01 07:15:09;;;;;;;4.97;4.57;;;;;;;;;;5073013;28;20461;-71
2022/08/01 07:17:38;;;;;;;5.70;5.20;;;;;;;;;;5073055;28;20473;-70
2022/08/01 07:20:06;;;;;;;6.17;5.67;;;;;;;;;;5073545;28;20442;-71
2022/08/01 07:22:34;;;;;;;6.13;5.57;;;;;;;;;;5073499;28;20468;-71
2022/08/01 07:25:01;;;;;;;6.80;6.10;;;;;;;;;;5073140;28;20455;-70
2022/08/01 07:27:28;;;;;;;8.17;6.13;;;;;;;;;;5073270;28;20498;-70
2022/08/01 07:29:55;;;;;;;8.20;6.80;;;;;;;;;;5073266;28;20500;-70
2022/08/01 07:32:24;;;;;;;7.90;6.70;;;;;;;;;;5073278;28;20481;-70
2022/08/01 07:34:51;;;;;;;11.27;7.20;;;;;;;;;;5072977;28;20439;-69
2022/08/01 07:37:18;;;;;;;12.13;7.93;;;;;;;;;;5073140;28;20447;-69
2022/08/01 07:39:46;;;;;;;9.30;8.40;;;;;;;;;;5073706;28;20795;-69
2022/08/01 07:42:13;;;;;;;10.23;9.03;;;;;;;;;;5072708;28;20570;-70
2022/08/01 07:44:40;;;;;;;9.93;7.80;;;;;;;;;;5073423;28;20471;-70
2022/08/01 07:47:07;;;;;;;8.70;7.80;;;;;;;;;;5072999;28;20531;-69
2022/08/01 07:49:36;;;;;;;8.80;7.83;;;;;;;;;;5072745;28;20943;-69
2022/08/01 07:52:03;;;;;;;9.30;7.50;;;;;;;;;;5073094;28;20479;-70
2022/08/01 07:54:31;;;;;;;8.60;7.87;;;;;;;;;;5072542;28;20539;-70
2022/08/01 07:56:58;;;;;;;13.30;7.87;;;;;;;;;;5072597;28;20479;-70
2022/08/01 07:59:25;;;;;;;8.37;7.57;;;;;;;;;;5072977;28;20517;-71
2022/08/01 08:01:52;;;;;;;8.40;7.13;;;;;;;;;;5073076;28;20902;-70
2022/08/01 08:04:20;;;;;;;7.70;7.00;;;;;;;;;;5072939;28;20525;-70
2022/08/01 08:06:48;;;;;;;8.13;7.33;;;;;;;;;;5072805;28;20530;-70
2022/08/01 08:09:16;;;;;;;8.30;7.43;;;;;;;;;;5073213;28;20521;-70
2022/08/01 08:11:44;;;;;;;7.43;6.40;;;;;;;;;;5076154;28;20451;-70
2022/08/01 08:14:12;;;;;;;8.67;6.40;;;;;;;;;;5076523;28;20447;-71
2022/08/01 08:16:39;;;;;;;7.80;6.27;;;;;;;;;;5075996;28;20471;-71
2022/08/01 08:19:07;;;;;;;8.10;7.30;;;;;;;;;;5076076;28;20527;-71
2022/08/01 08:21:34;;;;;;;8.33;7.43;;;;;;;;;;5075732;28;20569;-71
2022/08/01 08:24:21;;;;;;;10.73;7.03;;;;;;;;;;5076440;28;20450;-71
2022/08/01 08:26:48;;;;;;;8.63;7.00;;;;;;;;;;5076176;28;20751;-71
2022/08/01 08:29:16;;;;;;;7.73;6.60;;;;;;;;;;5076280;28;20448;-71
2022/08/01 08:31:43;;;;;;;10.50;7.27;;;;;;;;;;5076432;28;20448;-70
2022/08/01 08:34:11;;;;;;;9.20;7.10;;;;;;;;;;5076189;28;20579;-70
2022/08/01 08:36:38;;;;;;;17.10;7.57;;;;;;;;;;5076358;28;20494;-70
2022/08/01 08:39:07;;;;;;;8.97;6.83;;;;;;;;;;5076145;28;20519;-69
2022/08/01 08:41:35;;;;;;;8.60;7.80;;;;;;;;;;5075594;28;20508;-69
2022/08/01 08:44:02;;;;;;;7.73;6.50;;;;;;;;;;5076487;28;20523;-69
2022/08/01 08:46:32;;;;;;;7.17;6.57;;;;;;;;;;5075936;28;20441;-69
2022/08/01 08:49:02;;;;;;;7.43;6.73;;;;;;;;;;5076847;28;20448;-69
2022/08/01 08:51:31;;;;;;;7.27;6.63;;;;;;;;;;5076112;28;20535;-71
2022/08/01 08:53:59;;;;;;;8.27;7.67;;;;;;;;;;5075922;28;20441;-69
2022/08/01 08:56:29;;;;;;;5.80;5.30;;;;;;;;;;5075778;28;20476;-70
2022/08/01 08:58:57;;;;;;;6.67;5.70;;;;;;;;;;5076404;28;20439;-69
2022/08/01 09:01:24;;;;;;;6.10;5.60;;;;;;;;;;5076444;28;20489;-70
2022/08/01 09:03:51;;;;;;;9.30;5.30;;;;;;;;;;5075260;28;20524;-69
2022/08/01 09:06:19;;;;;;;5.73;5.33;;;;;;;;;;5075918;28;20438;-70
2022/08/01 09:08:46;;;;;;;9.83;5.77;;;;;;;;;;5075476;28;20469;-69
2022/08/01 09:11:14;;;;;;;6.87;6.27;;;;;;;;;;5076173;28;20917;-69
2022/08/01 09:13:42;;;;;;;8.13;7.50;;;;;;;;;;5075516;28;20498;-68
2022/08/01 09:16:18;;;;;;;8.27;7.47;;;;;;;;;;5075478;28;20816;-69
2022/08/01 09:18:45;;;;;;;7.60;7.00;;;;;;;;;;5075067;28;20901;-69
2022/08/01 09:21:14;;;;;;;7.23;6.57;;;;;;;;;;5074022;28;20444;-69
2022/08/01 09:23:43;;;;;;;5.50;4.40;;;;;;;;;;5075099;28;20449;-69
2022/08/01 09:26:10;;;;;;;5.17;4.77;;;;;;;;;;5075338;28;20458;-69
2022/08/01 09:28:37;;;;;;;5.20;4.40;;;;;;;;;;5075157;28;20932;-69
2022/08/01 09:31:10;;;;;;;6.50;5.07;;;;;;;;;;5075443;28;20525;-69
2022/08/01 09:33:51;;;;;;;5.63;5.10;;;;;;;;;;5075006;28;20790;-68
2022/08/01 09:36:18;;;;;;;5.40;5.00;;;;;;;;;;5074926;28;20443;-69
2022/08/01 09:38:45;;;;;;;6.13;5.10;;;;;;;;;;5074710;28;20448;-67
2022/08/01 09:41:12;;;;;;;6.03;5.53;;;;;;;;;;5074713;28;20453;-69
2022/08/01 09:43:40;;;;;;;6.47;5.87;;;;;;;;;;5074714;28;20481;-68
2022/08/01 09:46:11;;;;;;;8.27;7.27;;;;;;;;;;5074961;28;20444;-69
2022/08/01 09:48:39;;;;;;;6.80;6.20;;;;;;;;;;5074353;28;20427;-69
2022/08/01 09:51:07;;;;;;;7.00;6.30;;;;;;;;;;5074318;28;20443;-69
2022/08/01 09:53:48;;;;;;;7.27;5.53;;;;;;;;;;5074270;28;20797;-70
2022/08/01 09:56:15;;;;;;;8.57;5.83;;;;;;;;;;5074535;28;20813;-69
2022/08/01 09:58:52;;;;;;;7.17;6.57;;;;;;;;;;5074326;28;20436;-69
2022/08/01 10:01:22;;;;;;;7.00;6.30;;;;;;;;;;5074615;28;20434;-70
2022/08/01 10:04:06;;;;;;;7.30;6.03;;;;;;;;;;5074299;28;20452;-69
2022/08/01 10:06:33;;;;;;;7.30;6.30;;;;;;;;;;5074957;28;20864;-70
2022/08/01 10:09:00;;;;;;;10.10;5.90;;;;;;;;;;5074244;28;21020;-69
2022/08/01 10:11:28;;;;;;;7.37;5.60;;;;;;;;;;5074295;28;20434;-70
2022/08/01 10:13:56;;;;;;;9.10;6.17;;;;;;;;;;5073826;28;20441;-70
2022/08/01 10:16:26;;;;;;;8.70;5.57;;;;;;;;;;5073994;28;21038;-71
2022/08/01 10:18:55;;;;;;;6.03;5.57;;;;;;;;;;5074440;28;20429;-70
2022/08/01 10:21:25;;;;;;;6.60;5.93;;;;;;;;;;5074185;28;20487;-70
2022/08/01 10:23:53;;;;;;;6.50;5.37;;;;;;;;;;5074355;28;20442;-70
2022/08/01 10:26:20;;;;;;;7.17;6.27;;;;;;;;;;5074053;28;20447;-69
2022/08/01 10:28:49;;;;;;;6.10;5.57;;;;;;;;;;5073933;28;20460;-69
2022/08/01 10:31:19;;;;;;;6.27;5.67;;;;;;;;;;5073715;28;20444;-70
2022/08/01 10:33:47;;;;;;;6.27;5.77;;;;;;;;;;5073138;28;20784;-70
2022/08/01 10:36:15;;;;;;;6.30;5.70;;;;;;;;;;5073866;28;20443;-70
2022/08/01 10:38:42;;;;;;;7.10;6.60;;;;;;;;;;5073791;28;20464;-70
2022/08/01 10:41:10;;;;;;;6.10;5.60;;;;;;;;;;5073517;28;20449;-70
2022/08/01 10:43:37;;;;;;;10.43;5.40;;;;;;;;;;5073345;28;20480;-70
2022/08/01 10:46:05;;;;;;;7.50;5.00;;;;;;;;;;5074171;28;20440;-70
2022/08/01 10:48:35;;;;;;;6.37;5.07;;;;;;;;;;5073756;28;20451;-70
2022/08/01 10:51:05;;;;;;;5.10;4.30;;;;;;;;;;5073892;28;20772;-70
2022/08/01 10:53:33;;;;;;;5.57;5.00;;;;;;;;;;5073660;28;20943;-70
2022/08/01 10:56:01;;;;;;;5.17;4.70;;;;;;;;;;5073855;28;20439;-71
2022/08/01 10:58:29;;;;;;;5.67;5.27;;;;;;;;;;5073571;28;20542;-70
2022/08/01 11:01:15;;;;;;;7.73;6.03;;;;;;;;;;5073338;28;20792;-71
2022/08/01 11:03:43;;;;;;;6.27;5.47;;;;;;;;;;5073453;28;20483;-70
2022/08/01 11:06:17;;;;;;;5.93;5.30;;;;;;;;;;5073601;28;20482;-71
2022/08/01 11:08:52;;;;;;;7.97;6.73;;;;;;;;;;5073703;28;20516;-71
2022/08/01 11:11:20;;;;;;;8.73;6.50;;;;;;;;;;5073682;28;20436;-71
2022/08/01 11:14:06;;;;;;;10.23;6.90;;;;;;;;;;5073080;28;20547;-71
2022/08/01 11:16:34;;;;;;;7.00;6.30;;;;;;;;;;5073557;28;20483;-70
2022/08/01 11:19:01;;;;;;;7.97;7.27;;;;;;;;;;5073521;28;20436;-70
2022/08/01 11:21:43;;;;;;;8.20;7.40;;;;;;;;;;5073058;28;20449;-70
2022/08/01 11:24:12;;;;;;;7.90;7.20;;;;;;;;;;5072692;28;20816;-71
2022/08/01 11:26:39;;;;;;;9.23;6.93;;;;;;;;;;5072918;28;20444;-71
2022/08/01 11:29:14;;;;;;;7.10;6.50;;;;;;;;;;5073364;28;20466;-71
2022/08/01 11:31:41;;;;;;;6.80;6.30;;;;;;;;;;5073243;28;20475;-71
2022/08/01 11:34:08;;;;;;;7.70;6.90;;;;;;;;;;5073193;28;20532;-70
2022/08/01 11:36:36;;;;;;;8.53;7.50;;;;;;;;;;5073283;28;20440;-70
2022/08/01 11:39:27;;;;;;;11.50;7.03;;;;;;;;;;5073184;28;20508;-70
2022/08/01 11:41:56;;;;;;;7.87;7.17;;;;;;;;;;5057658;28;20448;-70
2022/08/01 11:44:27;;;;;;;10.10;6.40;;;;;;;;;;5073606;28;20440;-70
2022/08/01 11:46:59;;;;;;;8.53;7.03;;;;;;;;;;5077971;28;20485;-70
2022/08/01 11:49:32;;;;;;;9.30;7.37;;;;;;;;;;5077520;28;20504;-70
2022/08/01 11:52:00;;;;;;;10.40;7.23;;;;;;;;;;5076855;28;20777;-70
2022/08/01 11:54:28;;;;;;;9.43;8.50;;;;;;;;;;5076892;28;20451;-70
2022/08/01 11:56:58;;;;;;;9.37;8.40;;;;;;;;;;5076141;28;20479;-69
2022/08/01 11:59:25;;;;;;;10.20;9.20;;;;;;;;;;5076233;28;20526;-69
2022/08/01 12:01:53;;;;;;;12.20;9.80;;;;;;;;;;5076374;28;20455;-70
2022/08/01 12:04:20;;;;;;;12.80;10.80;;;;;;;;;;5075570;28;20475;-69
2022/08/01 12:06:47;;;;;;;13.50;12.10;;;;;;;;;;5075585;28;20440;-69
2022/08/01 12:09:18;;;;;;;16.63;12.33;;;;;;;;;;5075811;28;20486;-69
2022/08/01 12:11:46;;;;;;;12.40;11.20;;;;;;;;;;5076622;28;20458;-69
2022/08/01 12:14:19;;;;;;;12.87;11.03;;;;;;;;;;5076157;28;20451;-69
2022/08/01 12:16:50;;;;;;;10.87;8.27;;;;;;;;;;5075775;28;21011;-69
2022/08/01 12:19:21;;;;;;;7.60;6.90;;;;;;;;;;5075939;28;20599;-69
2022/08/01 12:22:04;;;;;;;12.47;7.90;;;;;;;;;;5076423;28;20434;-70
2022/08/01 12:24:31;;;;;;;9.00;8.10;;;;;;;;;;5076180;28;20465;-70
2022/08/01 12:26:58;;;;;;;10.40;8.80;;;;;;;;;;5075895;28;20450;-69
2022/08/01 12:29:37;;;;;;;16.50;9.60;;;;;;;;;;5075594;28;20885;-69
2022/08/01 12:32:05;;;;;;;9.57;8.63;;;;;;;;;;5075254;28;20451;-69
2022/08/01 12:34:34;;;;;;;10.77;9.57;;;;;;;;;;5075644;28;20542;-69
2022/08/01 12:37:03;;;;;;;11.37;8.60;;;;;;;;;;5075579;28;20454;-69
2022/08/01 12:39:34;;;;;;;11.37;9.23;;;;;;;;;;5075648;28;20445;-69
2022/08/01 12:42:01;;;;;;;11.70;10.50;;;;;;;;;;5075630;28;20444;-69
2022/08/01 12:44:29;;;;;;;11.90;9.10;;;;;;;;;;5075210;28;20473;-70
2022/08/01 12:46:58;;;;;;;20.53;10.50;;;;;;;;;;5075982;28;20432;-69
2022/08/01 12:49:26;;;;;;;10.30;9.30;;;;;;;;;;5075401;28;20437;-69
2022/08/01 12:51:55;;;;;;;10.30;9.20;;;;;;;;;;5074785;28;20442;-69
2022/08/01 12:54:25;;;;;;;11.33;9.20;;;;;;;;;;5075275;28;20500;-71
2022/08/01 12:56:53;;;;;;;11.10;9.33;;;;;;;;;;5075215;28;20790;-70
2022/08/01 12:59:22;;;;;;;10.17;9.13;;;;;;;;;;5076228;28;20446;-68
2022/08/01 13:01:50;;;;;;;9.43;8.63;;;;;;;;;;5075573;28;20793;-69
2022/08/01 13:04:19;;;;;;;8.67;7.20;;;;;;;;;;5075979;28;20512;-68
2022/08/01 13:06:47;;;;;;;12.83;8.57;;;;;;;;;;5075749;28;20785;-68
2022/08/01 13:09:14;;;;;;;8.03;7.00;;;;;;;;;;5075757;28;20483;-68
2022/08/01 13:11:41;;;;;;;9.70;7.73;;;;;;;;;;5075389;28;20845;-68
2022/08/01 13:14:09;;;;;;;6.40;5.43;;;;;;;;;;5075076;28;20931;-68
2022/08/01 13:16:47;;;;;;;6.90;5.47;;;;;;;;;;5074684;28;20469;-68
2022/08/01 13:19:14;;;;;;;6.03;5.43;;;;;;;;;;5074789;28;20476;-68
2022/08/01 13:21:54;;;;;;;7.20;4.43;;;;;;;;;;5075087;28;20535;-68
2022/08/01 13:24:25;;;;;;;4.83;3.20;;;;;;;;;;5074813;28;21022;-67
2022/08/01 13:26:53;;;;;;;5.07;3.80;;;;;;;;;;5074958;28;20443;-67
2022/08/01 13:29:22;;;;;;;4.10;3.03;;;;;;;;;;5075117;28;20536;-66
2022/08/01 13:31:50;;;;;;;7.10;3.97;;;;;;;;;;5074636;28;20476;-66
2022/08/01 13:34:17;;;;;;;4.73;3.27;;;;;;;;;;5074840;28;20800;-67
2022/08/01 13:36:46;;;;;;;5.70;2.90;;;;;;;;;;5074625;28;20535;-67
2022/08/01 13:41:58;;;;;;;7.83;2.50;;;;;;;;;;5074883;28;20403;-66
2022/08/01 13:44:25;;;;;;;4.33;2.77;;;;;;;;;;5074755;28;20577;-66
2022/08/01 13:46:52;;;;;;;3.30;2.70;;;;;;;;;;5074726;28;20466;-66
2022/08/01 13:49:19;;;;;;;7.40;3.97;;;;;;;;;;5074717;28;20532;-67
2022/08/01 13:51:49;;;;;;;7.93;3.80;;;;;;;;;;5074604;28;20446;-67
2022/08/01 13:54:17;;;;;;;4.80;3.23;;;;;;;;;;5074473;28;20491;-66
2022/08/01 13:56:44;;;;;;;10.53;3.83;;;;;;;;;;5074463;28;20544;-66
2022/08/01 13:59:11;;;;;;;14.07;3.53;;;;;;;;;;5074468;28;20448;-66
2022/08/01 14:01:38;;;;;;;8.00;3.00;;;;;;;;;;5074113;28;20527;-66
2022/08/01 14:04:06;;;;;;;5.97;2.97;;;;;;;;;;5074406;28;20509;-67
2022/08/01 14:06:34;;;;;;;4.97;2.60;;;;;;;;;;5073943;28;20452;-67
2022/08/01 14:09:03;;;;;;;3.43;3.13;;;;;;;;;;5073799;28;20444;-66
2022/08/01 14:11:30;;;;;;;8.63;3.60;;;;;;;;;;5074248;28;20870;-67
2022/08/01 14:13:57;;;;;;;7.83;3.87;;;;;;;;;;5073125;28;20459;-67
2022/08/01 14:16:25;;;;;;;10.33;3.50;;;;;;;;;;5074410;28;20574;-67
2022/08/01 14:18:52;;;;;;;5.57;3.37;;;;;;;;;;5074323;28;20447;-66
2022/08/01 14:21:20;;;;;;;11.10;3.77;;;;;;;;;;5073688;28;20542;-66
2022/08/01 14:23:47;;;;;;;3.67;2.87;;;;;;;;;;5073933;28;20584;-67
2022/08/01 14:26:15;;;;;;;4.27;3.70;;;;;;;;;;5073750;28;20515;-67
2022/08/01 14:28:43;;;;;;;5.23;3.87;;;;;;;;;;5074208;28;20810;-67
2022/08/01 14:31:10;;;;;;;6.47;3.10;;;;;;;;;;5073392;28;20498;-67
2022/08/01 14:33:37;;;;;;;9.70;5.40;;;;;;;;;;5073808;28;20531;-67
2022/08/01 14:36:05;;;;;;;9.50;3.87;;;;;;;;;;5073393;28;20958;-66
2022/08/01 14:38:32;;;;;;;5.60;4.07;;;;;;;;;;5073895;28;20490;-67
2022/08/01 14:40:59;;;;;;;7.87;4.10;;;;;;;;;;5073806;28;20539;-67
2022/08/01 14:43:28;;;;;;;6.90;3.70;;;;;;;;;;5073247;28;20469;-67
2022/08/01 14:45:55;;;;;;;5.77;3.23;;;;;;;;;;5073722;28;20462;-67